首页
METAR-TAF:

METAR-TAF

机场 :

Gillette, 怀俄明州, 美国

纬度: 44-20-22N, 经度: 105-32-31W, 海拔: 1330米

当前天气观测

该预报发布于8分钟前的05:53 UTC
风速17节,风向西南
温度 3°C
湿度 65%
气压 1008 hPa
能見度: 16.1公里
天空无云

METAR: KGCC 080553Z AUTO 23017KT 10SM CLR 03/M03 A2978 RMK AO2 SLP087 T00331033 10050 20033 50001 $

时间: 23:01 (06:01 UTC)

预报

该预报发布于41分钟前的05:20 UTC
预报有效从08日的 06点(UTC)到 09日的 06点(UTC)
风速15节,风向西南
能見度: 10公里
多云层高于15000英尺
从 08日的 2000点(UTC)
风速12节,风向西转西北
能見度: 10公里
散云层高于4000英尺
阴天层高于10000英尺
从 08日的 2300点(UTC)
风速18节,风向北转西北,有时为28节阵风
能見度: 3.2公里
阴天层高于1200英尺
小雪, 轻雾

TAF: KGCC 080520Z 0806/0906 22015KT P6SM BKN150 FM082000 29012KT P6SM SCT040 OVC100 FM082300 33018G28KT 2SM -SN BR OVC012

超过4000个机场的气象观测和天气预报(METAR&TAF报告)。

可查询的气象台以黄色和红色小点在地图上表示。

将鼠标移到小点上方,可查看气象台名称。

然后点击查看天气观测和预报。

如需切换地图:点击带黑十字的绿色按钮放大地图;点击带横线的绿色按钮缩小地图;或者点击绿色箭头查看邻近地区的地图。


METAR-TAF: